createdAt,value
2018-04-22T00:01:28.854Z,5.5
2018-04-22T00:11:27.970Z,5.3
2018-04-22T00:21:26.440Z,5.6
2018-04-22T00:31:26.390Z,5.1
2018-04-22T00:41:26.327Z,4.6
2018-04-22T00:51:26.840Z,4.0
2018-04-22T01:01:28.014Z,4.3
2018-04-22T01:11:26.670Z,4.3
2018-04-22T01:21:26.752Z,4.0
2018-04-22T01:31:26.771Z,4.0
2018-04-22T01:41:27.570Z,3.8
2018-04-22T01:51:26.581Z,3.9
2018-04-22T02:01:26.549Z,3.9
2018-04-22T02:11:26.314Z,4.3
2018-04-22T02:21:25.141Z,3.9
2018-04-22T02:31:27.289Z,4.1
2018-04-22T02:41:26.339Z,4.1
2018-04-22T02:51:26.649Z,4.7
2018-04-22T03:01:26.971Z,3.9
2018-04-22T03:11:29.838Z,4.3
2018-04-22T03:21:26.675Z,4.1
2018-04-22T03:31:26.351Z,4.4
2018-04-22T03:41:26.068Z,4.6
2018-04-22T03:51:27.839Z,4.0
2018-04-22T04:01:28.052Z,3.7
2018-04-22T04:11:26.755Z,3.7
2018-04-22T04:21:26.533Z,3.6
2018-04-22T04:31:27.239Z,3.7
2018-04-22T04:41:26.037Z,3.5
2018-04-22T04:51:26.133Z,3.3
2018-04-22T05:01:25.753Z,3.7
2018-04-22T05:11:28.404Z,2.5
2018-04-22T05:21:26.646Z,2.7
2018-04-22T05:31:26.363Z,3.3
2018-04-22T05:41:26.342Z,3.1
2018-04-22T05:51:25.381Z,3.1
2018-04-22T06:01:26.032Z,3.0
2018-04-22T06:11:26.957Z,3.1
2018-04-22T06:21:28.721Z,2.8
2018-04-22T06:31:26.304Z,2.5
2018-04-22T06:41:25.845Z,2.3
2018-04-22T06:51:26.117Z,2.5
2018-04-22T07:01:27.679Z,2.4
2018-04-22T07:11:26.571Z,2.6
2018-04-22T07:21:27.116Z,2.8
2018-04-22T07:31:26.160Z,2.4
2018-04-22T07:41:25.198Z,3.2
2018-04-22T07:51:27.258Z,2.7
2018-04-22T08:01:24.945Z,2.8
2018-04-22T08:11:26.653Z,2.2
2018-04-22T08:21:25.654Z,1.9
2018-04-22T08:31:25.403Z,2.2
2018-04-22T08:41:26.520Z,2.0
2018-04-22T08:51:27.971Z,2.0
2018-04-22T09:01:26.669Z,1.8
2018-04-22T09:11:29.568Z,2.4
2018-04-22T09:21:27.370Z,2.1
2018-04-22T09:31:25.389Z,2.4
2018-04-22T09:41:27.957Z,2.5
2018-04-22T09:51:28.693Z,3.1
2018-04-22T10:01:25.777Z,2.8
2018-04-22T10:11:27.058Z,3.2
2018-04-22T10:21:26.917Z,3.1
2018-04-22T10:31:28.139Z,3.8
2018-04-22T10:41:24.894Z,2.9
2018-04-22T10:51:26.821Z,2.6
2018-04-22T11:01:26.647Z,2.5
2018-04-22T11:11:26.026Z,2.7
2018-04-22T11:21:27.469Z,2.8
2018-04-22T11:31:25.306Z,3.2
2018-04-22T11:41:26.395Z,3.4
2018-04-22T11:51:25.386Z,3.1
2018-04-22T12:01:25.189Z,3.1
2018-04-22T12:11:25.038Z,3.5
2018-04-22T12:21:26.149Z,3.4
2018-04-22T12:31:24.855Z,3.8
2018-04-22T12:41:26.749Z,3.2
2018-04-22T12:51:26.359Z,3.5
2018-04-22T13:01:26.246Z,3.0
2018-04-22T13:11:26.404Z,2.7
2018-04-22T13:21:25.812Z,2.5
2018-04-22T13:31:26.209Z,2.4
2018-04-22T13:41:26.188Z,2.3
2018-04-22T13:51:25.740Z,2.2
2018-04-22T14:01:26.376Z,2.3
2018-04-22T14:11:25.105Z,2.7
2018-04-22T14:21:25.126Z,2.4
2018-04-22T14:31:25.024Z,2.4
2018-04-22T14:41:27.095Z,2.8
2018-04-22T14:51:25.515Z,2.1
2018-04-22T15:01:25.612Z,2.4
2018-04-22T15:11:25.402Z,2.5
2018-04-22T15:21:25.403Z,2.3
2018-04-22T15:31:25.440Z,2.8
2018-04-22T15:41:25.259Z,1.8
2018-04-22T15:51:25.080Z,2.8
2018-04-22T16:01:26.713Z,1.8
2018-04-22T16:11:25.537Z,1.7
2018-04-22T16:21:25.698Z,2.2
2018-04-22T16:31:25.497Z,1.8
2018-04-22T16:41:25.439Z,1.8
2018-04-22T16:51:26.025Z,1.6
2018-04-22T17:01:28.893Z,1.8
2018-04-22T17:11:26.567Z,1.8
2018-04-22T17:21:25.614Z,2.0
2018-04-22T17:31:26.050Z,2.2
2018-04-22T17:41:26.470Z,1.5
2018-04-22T17:51:25.189Z,2.2
2018-04-22T18:01:25.950Z,2.1
2018-04-22T18:11:25.809Z,2.0
2018-04-22T18:21:25.784Z,2.1
2018-04-22T18:31:27.139Z,3.2
2018-04-22T18:41:25.127Z,3.4
2018-04-22T18:51:25.107Z,3.2
2018-04-22T19:01:25.029Z,3.4
2018-04-22T19:11:26.076Z,3.8
2018-04-22T19:21:26.136Z,4.1
2018-04-22T19:31:26.189Z,6.0
2018-04-22T19:41:26.866Z,7.1
2018-04-22T19:51:28.594Z,7.7
2018-04-22T20:01:27.427Z,10.6
2018-04-22T20:11:25.677Z,10.3
2018-04-22T20:21:26.847Z,9.5
2018-04-22T20:31:26.876Z,8.2
2018-04-22T20:41:26.988Z,7.3
2018-04-22T20:51:27.607Z,7.4
2018-04-22T21:01:29.321Z,5.8
2018-04-22T21:11:26.362Z,5.8
2018-04-22T21:21:27.060Z,4.5
2018-04-22T21:31:26.652Z,3.9
2018-04-22T21:41:26.009Z,4.1
2018-04-22T21:51:26.752Z,4.4
2018-04-22T22:01:27.274Z,3.4
2018-04-22T22:11:27.197Z,3.9
2018-04-22T22:21:26.861Z,3.8
2018-04-22T22:31:27.030Z,3.9
2018-04-22T22:41:27.934Z,4.1
2018-04-22T22:51:25.189Z,3.7
2018-04-22T23:01:26.640Z,3.7
2018-04-22T23:11:26.696Z,4.5
2018-04-22T23:21:26.927Z,3.7
2018-04-22T23:31:29.011Z,3.4
2018-04-22T23:41:26.960Z,3.4
2018-04-22T23:51:26.638Z,3.4
